Time;durP1;ratioP1;P1;durP2;ratioP2;P2;SDS_P1;SDS_P2;PMS_P1;PMS_P2;Temp;Humidity;BMP_temperature;BMP_pressure;BME280_temperature;BME280_humidity;BME280_pressure;Samples;Min_cycle;Max_cycle;Signal;HPM_P1;HPM_P2
2022/09/19 00:00:43;;;;;;;6.55;2.45;;;8.80;99.90;;;;;;4955071;29;20499;-78
2022/09/19 00:03:09;;;;;;;7.05;2.50;;;8.80;99.90;;;;;;4955198;29;20267;-79
2022/09/19 00:05:41;;;;;;;8.63;2.30;;;8.70;99.90;;;;;;4937455;28;20312;-78
2022/09/19 00:08:08;;;;;;;8.45;2.10;;;8.70;99.90;;;;;;4958814;29;20499;-77
2022/09/19 00:10:39;;;;;;;6.78;2.20;;;8.80;99.90;;;;;;4958827;28;20232;-79
2022/09/19 00:13:06;;;;;;;7.65;2.08;;;8.80;99.90;;;;;;4942304;29;20268;-78
2022/09/19 00:15:33;;;;;;;6.10;2.00;;;8.80;99.90;;;;;;4958740;28;20177;-77
2022/09/19 00:17:59;;;;;;;4.10;1.58;;;8.80;99.90;;;;;;4942153;29;20180;-77
2022/09/19 00:20:25;;;;;;;5.10;2.45;;;8.80;99.90;;;;;;4959021;29;20180;-78
2022/09/19 00:25:34;;;;;;;5.10;1.92;;;8.80;99.90;;;;;;4958542;28;20295;-77
2022/09/19 00:28:00;;;;;;;6.20;2.10;;;8.80;99.90;;;;;;4941621;29;20603;-79
2022/09/19 00:30:26;;;;;;;7.83;2.30;;;8.70;99.90;;;;;;4958871;29;20215;-77
2022/09/19 00:32:53;;;;;;;4.20;2.40;;;8.80;99.90;;;;;;4958665;29;20177;-78
2022/09/19 00:35:19;;;;;;;11.30;3.70;;;8.80;99.90;;;;;;4958458;29;20188;-78
2022/09/19 00:37:45;;;;;;;10.02;2.70;;;8.80;99.90;;;;;;4941676;28;20676;-78
2022/09/19 00:40:11;;;;;;;5.07;2.00;;;8.80;99.90;;;;;;4958864;29;20196;-78
2022/09/19 00:42:37;;;;;;;9.47;2.20;;;8.80;99.90;;;;;;4958753;29;20563;-78
2022/09/19 00:45:23;;;;;;;10.30;2.57;;;8.80;99.90;;;;;;4958138;29;20570;-77
2022/09/19 00:47:53;;;;;;;4.60;2.03;;;8.80;99.90;;;;;;4958099;29;20572;-78
2022/09/19 00:50:27;;;;;;;7.55;2.00;;;8.80;99.90;;;;;;4958688;29;20213;-77
2022/09/19 00:53:07;;;;;;;8.80;2.03;;;8.90;99.90;;;;;;4958202;28;20263;-76
2022/09/19 00:55:33;;;;;;;5.55;2.05;;;8.80;99.90;;;;;;4958141;29;20184;-78
2022/09/19 00:58:07;;;;;;;5.97;2.50;;;8.80;99.90;;;;;;4958416;29;20544;-77
2022/09/19 01:00:34;;;;;;;7.47;2.10;;;8.80;99.90;;;;;;4958239;29;20228;-78
2022/09/19 01:03:05;;;;;;;7.90;2.60;;;8.90;99.90;;;;;;4958130;29;20213;-77
2022/09/19 01:06:15;;;;;;;8.02;2.25;;;8.80;99.90;;;;;;4957628;29;20217;-77
2022/09/19 01:08:58;;;;;;;6.53;2.40;;;8.80;99.90;;;;;;4947723;29;20227;-78
2022/09/19 01:11:58;;;;;;;7.05;2.03;;;8.80;99.90;;;;;;4958016;29;20585;-79
2022/09/19 01:14:43;;;;;;;6.40;1.95;;;8.80;99.90;;;;;;4957745;29;20153;-78
2022/09/19 01:17:16;;;;;;;9.38;2.35;;;8.80;99.90;;;;;;4957353;28;20193;-78
2022/09/19 01:19:59;;;;;;;11.95;1.90;;;8.70;99.90;;;;;;4958003;29;20208;-78
2022/09/19 01:22:55;;;;;;;11.98;2.50;;;8.80;99.90;;;;;;4956687;29;20196;-79
2022/09/19 01:25:49;;;;;;;8.98;1.95;;;8.80;99.90;;;;;;4957543;28;20192;-78
2022/09/19 01:28:29;;;;;;;9.13;2.40;;;8.80;99.90;;;;;;4958034;29;20173;-77
2022/09/19 01:31:22;;;;;;;4.60;2.60;;;8.80;99.90;;;;;;4957651;28;20184;-78
2022/09/19 01:33:55;;;;;;;6.28;1.70;;;8.80;99.90;;;;;;4957583;29;20184;-77
2022/09/19 01:36:26;;;;;;;6.20;1.85;;;8.70;99.90;;;;;;4957733;29;20283;-79
2022/09/19 01:38:53;;;;;;;9.88;2.13;;;8.70;99.90;;;;;;4958001;28;20189;-77
2022/09/19 01:41:21;;;;;;;4.80;2.38;;;8.70;99.90;;;;;;4957439;29;20188;-79
2022/09/19 01:43:48;;;;;;;8.38;1.80;;;8.70;99.90;;;;;;4957312;29;20649;-79
2022/09/19 01:46:23;;;;;;;6.50;2.10;;;8.70;99.90;;;;;;4956089;28;20221;-77
2022/09/19 01:49:17;;;;;;;7.22;2.30;;;8.60;99.90;;;;;;4957417;29;20167;-78
2022/09/19 01:51:47;;;;;;;8.18;2.03;;;8.60;99.90;;;;;;4957497;29;20173;-77
2022/09/19 01:54:28;;;;;;;16.13;2.72;;;8.60;99.90;;;;;;4957090;29;20260;-78
2022/09/19 01:57:26;;;;;;;5.15;2.20;;;8.50;99.90;;;;;;4957279;29;20220;-78
2022/09/19 02:00:05;;;;;;;7.88;2.88;;;8.60;99.90;;;;;;4957359;29;20184;-78
2022/09/19 02:02:34;;;;;;;7.63;1.90;;;8.50;99.90;;;;;;4957222;29;20195;-77
2022/09/19 02:05:10;;;;;;;10.88;2.22;;;8.50;99.90;;;;;;4956741;29;20196;-79
2022/09/19 02:07:43;;;;;;;14.10;2.20;;;8.50;99.90;;;;;;4955638;28;20681;-79
2022/09/19 02:10:23;;;;;;;6.65;3.28;;;8.60;99.90;;;;;;4957020;29;20169;-77
2022/09/19 02:12:53;;;;;;;7.60;2.30;;;8.60;99.90;;;;;;4956818;29;20181;-79
2022/09/19 02:15:26;;;;;;;5.93;1.95;;;8.50;99.90;;;;;;4956507;29;20198;-77
2022/09/19 02:17:57;;;;;;;4.90;1.80;;;8.50;99.90;;;;;;4956982;28;20197;-77
2022/09/19 02:20:34;;;;;;;10.85;2.40;;;8.50;99.90;;;;;;4956936;29;20180;-79
2022/09/19 02:23:20;;;;;;;11.52;2.85;;;8.50;99.90;;;;;;4956913;29;20184;-80
2022/09/19 02:25:49;;;;;;;13.40;2.70;;;8.50;99.90;;;;;;4956187;28;20284;-79
2022/09/19 02:28:21;;;;;;;12.40;2.03;;;8.60;99.90;;;;;;4956819;29;20189;-79
2022/09/19 02:30:47;;;;;;;4.25;2.00;;;8.60;99.90;;;;;;4954613;28;20228;-78
2022/09/19 02:33:15;;;;;;;4.60;2.37;;;8.60;99.90;;;;;;4956620;29;20215;-79
2022/09/19 02:36:05;;;;;;;6.70;2.10;;;8.50;99.90;;;;;;4955981;29;20444;-78
2022/09/19 02:38:33;;;;;;;7.43;2.00;;;8.30;99.90;;;;;;4956405;29;20177;-79
2022/09/19 02:41:18;;;;;;;6.68;2.40;;;8.40;99.90;;;;;;4956547;29;20180;-79
2022/09/19 02:43:58;;;;;;;9.45;2.20;;;8.40;99.90;;;;;;4956524;29;20546;-80
2022/09/19 02:46:35;;;;;;;11.05;2.65;;;8.40;99.90;;;;;;4956148;29;20214;-79
2022/09/19 02:49:13;;;;;;;10.20;2.40;;;8.30;99.90;;;;;;4956320;29;20169;-79
2022/09/19 02:51:46;;;;;;;10.15;2.70;;;8.30;99.90;;;;;;4956436;29;20482;-79
2022/09/19 02:54:21;;;;;;;6.72;2.15;;;8.30;99.90;;;;;;4955936;29;20170;-79
2022/09/19 02:56:49;;;;;;;5.32;1.80;;;8.30;99.90;;;;;;4956242;29;20200;-78
2022/09/19 02:59:21;;;;;;;7.05;2.33;;;8.30;99.90;;;;;;4956032;29;20168;-78
2022/09/19 03:02:01;;;;;;;7.22;2.47;;;8.40;99.90;;;;;;4951873;29;20188;-80
2022/09/19 03:04:40;;;;;;;7.53;2.10;;;8.40;99.90;;;;;;4937816;29;20185;-78
2022/09/19 03:07:14;;;;;;;12.27;3.47;;;8.40;99.90;;;;;;4947137;29;20204;-78
2022/09/19 03:10:04;;;;;;;7.38;2.60;;;8.50;99.90;;;;;;4955578;29;20228;-79
2022/09/19 03:12:39;;;;;;;8.77;2.35;;;8.30;99.90;;;;;;4955886;29;20173;-79
2022/09/19 03:15:07;;;;;;;9.32;2.08;;;8.50;99.90;;;;;;4945088;29;20185;-79
2022/09/19 03:17:38;;;;;;;5.30;2.13;;;8.40;99.90;;;;;;4938448;29;20201;-78
2022/09/19 03:20:05;;;;;;;7.65;2.47;;;8.40;99.90;;;;;;4955666;28;20188;-80
2022/09/19 03:22:31;;;;;;;4.10;1.98;;;8.30;99.90;;;;;;4939547;29;20185;-79
2022/09/19 03:25:01;;;;;;;8.07;2.00;;;8.40;99.90;;;;;;4948325;29;20209;-79
2022/09/19 03:27:27;;;;;;;9.23;2.30;;;8.30;99.90;;;;;;4954632;28;20256;-79
2022/09/19 03:29:52;;;;;;;6.90;2.50;;;8.30;99.90;;;;;;4955465;28;20223;-78
2022/09/19 03:32:18;;;;;;;12.30;2.83;;;8.30;99.90;;;;;;4955506;28;20288;-78
2022/09/19 03:34:43;;;;;;;7.20;2.60;;;8.20;99.90;;;;;;4955150;29;20189;-78
2022/09/19 03:37:10;;;;;;;11.10;3.03;;;8.30;99.90;;;;;;4955616;29;20205;-78
2022/09/19 03:39:36;;;;;;;7.20;2.55;;;8.30;99.90;;;;;;4936673;28;20193;-79
2022/09/19 03:42:01;;;;;;;12.93;3.27;;;8.40;99.90;;;;;;4936369;29;20189;-80
2022/09/19 03:44:27;;;;;;;4.97;1.93;;;8.40;99.90;;;;;;4947009;29;20207;-77
2022/09/19 03:46:52;;;;;;;5.87;2.40;;;8.40;99.90;;;;;;4954267;29;20229;-79
2022/09/19 03:49:19;;;;;;;6.10;3.07;;;8.40;99.90;;;;;;4955529;28;20181;-79
2022/09/19 03:51:46;;;;;;;8.77;3.05;;;8.40;99.90;;;;;;4955527;28;20192;-79
2022/09/19 03:54:12;;;;;;;2.50;1.95;;;8.50;99.90;;;;;;4954765;28;20645;-79
2022/09/19 03:56:37;;;;;;;12.40;2.83;;;8.50;99.90;;;;;;4954814;29;20212;-79
2022/09/19 03:59:03;;;;;;;4.53;2.87;;;8.50;99.90;;;;;;4955389;29;20180;-77
2022/09/19 04:01:29;;;;;;;9.00;2.90;;;8.50;99.90;;;;;;4953985;28;20264;-78
2022/09/19 04:03:55;;;;;;;6.97;2.83;;;8.60;99.90;;;;;;4954969;29;20181;-80
2022/09/19 04:06:20;;;;;;;7.20;2.33;;;8.60;99.90;;;;;;4954941;28;20216;-78
2022/09/19 04:08:46;;;;;;;7.30;3.50;;;8.70;99.90;;;;;;4941151;29;20647;-78
2022/09/19 04:11:12;;;;;;;8.23;3.10;;;8.70;99.90;;;;;;4950541;28;20414;-79
2022/09/19 04:13:38;;;;;;;8.47;2.33;;;8.70;99.90;;;;;;4936057;29;20185;-79
2022/09/19 04:16:05;;;;;;;9.87;3.13;;;8.60;99.90;;;;;;4937729;29;20851;-80
2022/09/19 04:18:32;;;;;;;9.82;2.47;;;8.70;99.90;;;;;;4936104;29;20180;-81
2022/09/19 04:20:58;;;;;;;8.48;2.25;;;8.80;99.90;;;;;;4954515;29;20642;-79
2022/09/19 04:23:26;;;;;;;8.83;2.10;;;8.70;99.90;;;;;;4955046;29;20196;-79
2022/09/19 04:25:51;;;;;;;6.07;2.47;;;8.70;99.90;;;;;;4951749;29;20215;-77
2022/09/19 04:28:18;;;;;;;11.50;2.20;;;8.70;99.90;;;;;;4940701;29;20710;-78
2022/09/19 04:30:44;;;;;;;9.20;1.98;;;8.70;99.90;;;;;;4936054;29;20441;-79
2022/09/19 04:33:12;;;;;;;6.78;2.63;;;8.70;99.90;;;;;;4935755;29;20261;-78
2022/09/19 04:35:38;;;;;;;5.43;1.90;;;8.70;99.90;;;;;;4935392;29;20188;-79
2022/09/19 04:38:06;;;;;;;6.95;2.60;;;8.60;99.90;;;;;;4936066;29;20208;-79
2022/09/19 04:40:38;;;;;;;11.05;3.10;;;8.60;99.90;;;;;;4946104;29;20256;-79
2022/09/19 04:43:04;;;;;;;10.93;3.13;;;8.70;99.90;;;;;;4937042;29;20192;-79
2022/09/19 04:45:30;;;;;;;13.10;2.65;;;8.80;99.90;;;;;;4954504;28;20200;-80
2022/09/19 04:47:58;;;;;;;9.77;2.73;;;8.90;99.90;;;;;;4954043;29;20216;-79
2022/09/19 04:50:25;;;;;;;14.30;2.45;;;8.80;99.90;;;;;;4951611;29;20436;-79
2022/09/19 04:52:51;;;;;;;6.10;1.92;;;8.80;99.90;;;;;;4941202;29;20264;-80
2022/09/19 04:55:17;;;;;;;5.90;2.22;;;8.80;99.90;;;;;;4939942;29;20193;-80
2022/09/19 04:57:43;;;;;;;16.60;2.40;;;8.90;99.90;;;;;;4949381;29;20223;-79
2022/09/19 05:00:09;;;;;;;5.70;2.87;;;8.80;99.90;;;;;;4947837;28;20589;-79
2022/09/19 05:02:35;;;;;;;7.40;2.15;;;8.80;99.90;;;;;;4938993;29;20481;-79
2022/09/19 05:05:00;;;;;;;10.27;2.17;;;8.80;99.90;;;;;;4945380;29;20299;-78
2022/09/19 05:07:33;;;;;;;5.90;2.03;;;8.80;99.90;;;;;;4951359;28;20682;-78
2022/09/19 05:10:02;;;;;;;8.85;2.38;;;8.90;99.90;;;;;;4937711;29;20225;-77
2022/09/19 05:12:28;;;;;;;9.38;2.13;;;8.90;99.90;;;;;;4938856;29;20229;-78
2022/09/19 05:14:55;;;;;;;7.05;2.33;;;9.00;99.90;;;;;;4941082;29;20188;-78
2022/09/19 05:17:21;;;;;;;9.70;2.85;;;9.00;99.90;;;;;;4957595;28;20228;-79
2022/09/19 05:19:46;;;;;;;11.55;2.55;;;9.10;99.90;;;;;;4957967;29;20192;-75
2022/09/19 05:22:12;;;;;;;9.73;2.27;;;9.20;99.90;;;;;;4957929;29;20189;-77
2022/09/19 05:24:38;;;;;;;9.00;2.20;;;9.20;99.90;;;;;;4956891;29;20185;-78
2022/09/19 05:27:04;;;;;;;5.00;2.00;;;9.30;99.90;;;;;;4957809;29;20205;-78
2022/09/19 05:29:36;;;;;;;15.10;3.40;;;9.30;99.90;;;;;;4957826;29;20220;-78
2022/09/19 05:32:04;;;;;;;8.25;2.33;;;9.40;99.90;;;;;;4954356;28;20280;-78
2022/09/19 05:34:30;;;;;;;5.53;2.17;;;9.30;99.90;;;;;;4952255;28;20209;-75
2022/09/19 05:36:56;;;;;;;6.23;1.70;;;9.40;99.90;;;;;;4948501;28;20233;-75
2022/09/19 05:39:22;;;;;;;6.38;2.55;;;9.40;99.90;;;;;;4938484;29;20205;-78
2022/09/19 05:41:48;;;;;;;4.80;2.07;;;9.40;99.90;;;;;;4938507;29;20269;-77
2022/09/19 05:44:16;;;;;;;11.17;3.50;;;9.40;99.90;;;;;;4938260;29;20178;-79
2022/09/19 05:46:42;;;;;;;9.98;2.40;;;9.50;99.90;;;;;;4952945;29;20269;-79
2022/09/19 05:49:08;;;;;;;5.38;1.83;;;9.50;99.90;;;;;;4937889;29;20196;-76
2022/09/19 05:51:33;;;;;;;6.78;2.38;;;9.50;99.90;;;;;;4938313;29;20589;-77
2022/09/19 05:53:59;;;;;;;9.60;2.30;;;9.60;99.90;;;;;;4938005;29;20186;-77
2022/09/19 05:56:25;;;;;;;7.50;2.33;;;9.80;99.90;;;;;;4938112;29;20202;-77
2022/09/19 05:58:54;;;;;;;13.67;2.17;;;9.90;99.90;;;;;;4952767;28;20177;-79
2022/09/19 06:01:20;;;;;;;7.75;1.98;;;10.00;99.90;;;;;;4938068;29;20181;-80
2022/09/19 06:03:46;;;;;;;8.48;3.10;;;10.00;99.90;;;;;;4937132;29;20719;-78
2022/09/19 06:06:20;;;;;;;5.93;2.30;;;10.00;99.90;;;;;;4937726;29;20217;-79
2022/09/19 06:08:53;;;;;;;5.40;1.85;;;10.10;99.90;;;;;;4937904;29;20170;-75
2022/09/19 06:11:18;;;;;;;8.52;2.40;;;10.00;99.90;;;;;;4938170;29;20189;-77
2022/09/19 06:16:28;;;;;;;16.08;2.50;;;10.10;99.90;;;;;;4937913;29;20745;-78
2022/09/19 06:18:53;;;;;;;6.73;2.00;;;10.20;99.90;;;;;;4937799;29;20193;-76
2022/09/19 06:21:19;;;;;;;7.90;1.80;;;10.20;99.90;;;;;;4937509;29;20186;-77
2022/09/19 06:23:45;;;;;;;7.47;2.67;;;10.20;99.90;;;;;;4937599;29;20272;-77
2022/09/19 06:26:11;;;;;;;9.00;2.40;;;10.20;99.90;;;;;;4937303;29;20713;-79
2022/09/19 06:28:37;;;;;;;9.25;2.00;;;10.10;99.90;;;;;;4937766;29;20185;-79
2022/09/19 06:31:04;;;;;;;10.10;2.60;;;10.20;99.90;;;;;;4955788;28;20201;-77
2022/09/19 06:33:30;;;;;;;8.93;2.15;;;10.10;99.90;;;;;;4955582;29;20259;-76
2022/09/19 06:35:59;;;;;;;5.85;2.15;;;10.30;99.90;;;;;;4956071;28;20247;-78
2022/09/19 06:38:25;;;;;;;11.63;1.90;;;10.20;99.90;;;;;;4956630;29;20653;-79
2022/09/19 06:40:51;;;;;;;6.47;2.00;;;10.30;99.90;;;;;;4939415;29;20192;-77
2022/09/19 06:43:17;;;;;;;8.18;2.03;;;10.30;99.90;;;;;;4956408;29;20263;-79
2022/09/19 06:45:42;;;;;;;8.50;2.30;;;10.30;99.90;;;;;;4955871;29;20681;-77
2022/09/19 06:48:09;;;;;;;8.37;2.57;;;10.30;99.90;;;;;;4956169;29;20177;-80
2022/09/19 06:50:35;;;;;;;14.20;2.13;;;10.50;99.90;;;;;;4954879;28;20183;-78
2022/09/19 06:53:00;;;;;;;11.17;1.70;;;10.60;99.90;;;;;;4956266;29;20185;-77
2022/09/19 06:55:28;;;;;;;7.97;2.33;;;10.70;99.90;;;;;;4955959;29;20420;-76
2022/09/19 06:57:59;;;;;;;5.20;2.65;;;10.80;99.90;;;;;;4956135;29;20215;-78
2022/09/19 07:00:26;;;;;;;6.75;2.60;;;10.80;99.90;;;;;;4956254;29;20530;-79
2022/09/19 07:03:00;;;;;;;8.15;2.17;;;10.70;99.90;;;;;;4956255;29;20572;-77
2022/09/19 07:05:34;;;;;;;13.00;2.58;;;10.70;99.90;;;;;;4955820;28;20299;-78
2022/09/19 07:07:59;;;;;;;9.95;2.00;;;10.80;99.90;;;;;;4956111;29;20189;-77
2022/09/19 07:10:26;;;;;;;3.20;1.57;;;10.90;99.90;;;;;;4956047;29;20658;-78
2022/09/19 07:12:56;;;;;;;10.20;2.25;;;10.90;99.90;;;;;;4938636;29;21025;-77
2022/09/19 07:15:23;;;;;;;9.32;1.73;;;11.00;99.90;;;;;;4955269;28;20211;-79
2022/09/19 07:17:49;;;;;;;9.18;2.00;;;11.10;99.90;;;;;;4955955;28;20699;-78
2022/09/19 07:20:14;;;;;;;5.17;1.83;;;11.10;99.90;;;;;;4955756;28;20272;-77
2022/09/19 07:22:40;;;;;;;10.63;2.47;;;11.10;99.90;;;;;;4955676;28;20199;-77
2022/09/19 07:25:07;;;;;;;6.60;2.00;;;11.20;99.90;;;;;;4955327;29;20200;-79
2022/09/19 07:27:33;;;;;;;12.95;2.53;;;11.20;99.90;;;;;;4955517;29;20201;-77
2022/09/19 07:29:59;;;;;;;11.25;3.08;;;11.20;99.90;;;;;;4955501;29;20673;-81
2022/09/19 07:32:26;;;;;;;7.73;2.07;;;11.20;99.90;;;;;;4955598;29;20181;-81
2022/09/19 07:34:51;;;;;;;9.77;2.80;;;11.30;99.90;;;;;;4955405;29;20195;-79
2022/09/19 07:37:17;;;;;;;9.17;2.00;;;11.30;99.90;;;;;;4955542;29;20292;-76
2022/09/19 07:39:43;;;;;;;11.63;2.55;;;11.40;99.90;;;;;;4955413;29;20189;-79
2022/09/19 07:42:08;;;;;;;7.17;1.93;;;11.50;99.90;;;;;;4955343;28;20189;-78
2022/09/19 07:44:35;;;;;;;6.27;1.90;;;11.50;99.90;;;;;;4955131;29;20638;-78
2022/09/19 07:49:44;;;;;;;10.43;2.00;;;11.50;99.90;;;;;;4955615;28;20235;-78
2022/09/19 07:52:10;;;;;;;5.20;2.10;;;11.70;99.90;;;;;;4955239;28;20456;-79
2022/09/19 07:54:35;;;;;;;7.60;2.03;;;11.70;99.90;;;;;;4955116;29;20220;-78
2022/09/19 07:57:01;;;;;;;10.40;2.37;;;11.70;99.90;;;;;;4955224;29;20205;-80
2022/09/19 07:59:26;;;;;;;7.30;1.97;;;11.70;99.90;;;;;;4955560;28;20208;-77
2022/09/19 08:01:52;;;;;;;13.63;1.97;;;11.70;99.90;;;;;;4955265;28;20546;-78
2022/09/19 08:04:17;;;;;;;11.30;2.70;;;11.70;99.90;;;;;;4954904;29;20287;-77
2022/09/19 08:06:43;;;;;;;12.40;2.27;;;11.70;99.90;;;;;;4955007;28;20348;-76
2022/09/19 08:09:10;;;;;;;12.63;2.03;;;11.80;99.90;;;;;;4955148;28;20281;-81
2022/09/19 08:11:36;;;;;;;11.13;2.63;;;11.90;99.90;;;;;;4955195;28;20495;-80
2022/09/19 08:14:02;;;;;;;11.93;2.03;;;12.00;99.90;;;;;;4937357;29;20946;-77
2022/09/19 08:16:28;;;;;;;11.40;2.70;;;12.10;99.90;;;;;;4954958;28;20232;-75
2022/09/19 08:18:53;;;;;;;7.60;2.20;;;12.20;99.90;;;;;;4954051;29;20522;-80
2022/09/19 08:21:19;;;;;;;7.70;2.30;;;12.30;99.90;;;;;;4955081;29;20184;-81
2022/09/19 08:23:45;;;;;;;6.00;1.90;;;12.20;99.90;;;;;;4954884;29;20189;-79
2022/09/19 08:26:11;;;;;;;4.17;1.63;;;12.20;99.90;;;;;;4953284;29;20949;-78
2022/09/19 08:28:37;;;;;;;8.27;1.90;;;12.30;99.90;;;;;;4957606;28;20424;-76
2022/09/19 08:31:03;;;;;;;10.40;2.60;;;12.30;99.90;;;;;;4958865;28;20678;-79
2022/09/19 08:33:30;;;;;;;11.63;2.33;;;12.40;99.90;;;;;;4958863;29;20448;-78
2022/09/19 08:35:58;;;;;;;9.93;2.40;;;12.40;99.90;;;;;;4958259;29;20491;-78
2022/09/19 08:38:23;;;;;;;9.23;3.17;;;12.60;99.90;;;;;;4957670;28;20857;-79
2022/09/19 08:40:58;;;;;;;6.27;1.77;;;12.90;99.90;;;;;;4958844;28;20457;-75
2022/09/19 08:43:45;;;;;;;4.00;1.53;;;13.00;99.90;;;;;;4958780;28;20572;-77
2022/09/19 08:46:36;;;;;;;13.40;2.20;;;12.80;99.90;;;;;;4958165;29;20514;-81
2022/09/19 08:49:12;;;;;;;5.33;2.00;;;12.60;99.90;;;;;;4958705;28;20447;-79
2022/09/19 08:52:00;;;;;;;6.57;2.13;;;12.70;99.90;;;;;;4958503;29;20796;-78
2022/09/19 08:54:43;;;;;;;8.97;2.00;;;12.80;99.90;;;;;;4958089;29;20902;-79
2022/09/19 08:57:34;;;;;;;12.07;2.73;;;12.90;99.90;;;;;;4958424;29;20424;-77
2022/09/19 09:00:21;;;;;;;11.00;2.53;;;13.10;99.90;;;;;;4958546;29;20408;-76
2022/09/19 09:02:58;;;;;;;5.07;1.60;;;13.20;99.90;;;;;;4958357;29;20867;-76
2022/09/19 09:05:43;;;;;;;10.10;2.17;;;13.30;99.90;;;;;;4957929;29;20844;-78
2022/09/19 09:08:48;;;;;;;8.57;2.20;;;13.40;99.90;;;;;;4958203;28;20854;-79
2022/09/19 09:11:20;;;;;;;7.90;1.70;;;13.70;99.90;;;;;;4958178;28;20408;-75
2022/09/19 09:14:04;;;;;;;9.23;1.83;;;13.80;99.90;;;;;;4957918;29;20412;-76
2022/09/19 09:16:53;;;;;;;8.47;1.77;;;13.80;99.90;;;;;;4957716;29;20432;-80
2022/09/19 09:19:53;;;;;;;15.37;2.00;;;14.10;99.90;;;;;;4957981;28;20789;-78
2022/09/19 09:22:26;;;;;;;6.70;1.77;;;14.10;99.90;;;;;;4957862;29;20424;-78
2022/09/19 09:25:17;;;;;;;13.13;2.13;;;14.20;99.90;;;;;;4957283;29;20907;-76
2022/09/19 09:28:11;;;;;;;5.17;1.87;;;14.30;99.90;;;;;;4957841;29;20892;-78
2022/09/19 09:30:44;;;;;;;7.90;2.37;;;14.80;99.90;;;;;;4955286;28;20868;-77
2022/09/19 09:33:21;;;;;;;8.07;1.43;;;15.10;99.90;;;;;;4940505;29;20914;-79
2022/09/19 09:35:54;;;;;;;7.07;1.73;;;14.90;99.90;;;;;;4939931;29;20925;-78
2022/09/19 09:38:30;;;;;;;7.50;1.70;;;14.90;99.90;;;;;;4957621;28;20454;-78
2022/09/19 09:41:45;;;;;;;8.73;1.87;;;14.80;99.90;;;;;;4940299;29;20487;-76
2022/09/19 09:44:13;;;;;;;8.23;1.27;;;15.10;99.90;;;;;;4957321;29;20450;-77
2022/09/19 09:46:50;;;;;;;7.97;2.00;;;15.10;99.90;;;;;;4957226;28;20828;-75
2022/09/19 09:49:18;;;;;;;6.30;1.90;;;15.00;99.90;;;;;;4957477;28;20428;-75
2022/09/19 09:52:18;;;;;;;6.60;1.70;;;15.50;99.90;;;;;;4958318;29;20474;-75
2022/09/19 09:58:02;;;;;;;6.03;1.67;;;16.70;99.90;;;;;;4957477;29;20423;-78
2022/09/19 10:03:39;;;;;;;8.80;2.60;;;17.30;99.90;;;;;;4957543;28;21093;-78
2022/09/19 10:06:56;;;;;;;9.57;2.30;;;17.30;99.90;;;;;;4956836;29;20517;-75
2022/09/19 10:09:34;;;;;;;8.20;1.70;;;16.70;99.90;;;;;;4943959;29;20472;-77
2022/09/19 10:12:27;;;;;;;7.40;1.43;;;16.50;99.90;;;;;;4957087;29;20420;-78
2022/09/19 10:14:58;;;;;;;5.90;1.67;;;16.90;99.90;;;;;;4956711;29;20894;-76
2022/09/19 10:17:28;;;;;;;4.80;1.60;;;17.40;99.90;;;;;;4956797;29;20449;-78
2022/09/19 10:20:03;;;;;;;7.50;1.90;;;17.50;99.90;;;;;;4956834;29;20383;-76
2022/09/19 10:22:29;;;;;;;5.73;1.60;;;17.20;99.90;;;;;;4956770;29;20776;-78
2022/09/19 10:24:59;;;;;;;7.93;1.37;;;17.30;99.90;;;;;;4955127;28;20432;-78
2022/09/19 10:27:31;;;;;;;7.63;1.70;;;16.90;99.90;;;;;;4956512;29;20425;-76
2022/09/19 10:29:59;;;;;;;6.80;1.67;;;16.90;99.90;;;;;;4956738;28;20432;-77
2022/09/19 10:32:30;;;;;;;7.50;1.60;;;16.70;99.90;;;;;;4956648;29;20444;-77
2022/09/19 10:34:56;;;;;;;6.50;1.77;;;16.80;99.90;;;;;;4956382;29;20395;-78
2022/09/19 10:37:26;;;;;;;9.33;1.90;;;16.50;99.90;;;;;;4956258;29;20441;-77
2022/09/19 10:39:51;;;;;;;6.40;2.27;;;16.40;99.90;;;;;;4956631;29;20539;-78
2022/09/19 10:42:37;;;;;;;9.30;2.60;;;16.50;99.90;;;;;;4956713;28;20421;-75
2022/09/19 10:45:16;;;;;;;11.57;1.87;;;16.30;99.90;;;;;;4956115;29;20196;-77
2022/09/19 10:47:42;;;;;;;8.80;1.47;;;15.80;99.90;;;;;;4939641;29;20422;-75
2022/09/19 10:50:13;;;;;;;4.47;1.70;;;15.80;99.90;;;;;;4955939;28;20789;-77
2022/09/19 10:52:40;;;;;;;2.17;1.03;;;16.20;99.90;;;;;;4956426;29;20387;-77
2022/09/19 10:55:12;;;;;;;11.37;1.60;;;16.50;99.90;;;;;;4954991;28;20394;-77
2022/09/19 10:58:03;;;;;;;5.37;1.47;;;16.80;99.90;;;;;;4956087;29;20454;-76
2022/09/19 11:00:47;;;;;;;3.60;1.20;;;16.90;99.90;;;;;;4956316;28;20445;-77
2022/09/19 11:03:23;;;;;;;5.07;1.63;;;16.90;99.90;;;;;;4956142;28;20424;-78
2022/09/19 11:06:05;;;;;;;3.53;1.10;;;17.00;99.90;;;;;;4955714;29;20430;-76
2022/09/19 11:08:42;;;;;;;8.37;1.30;;;17.10;99.90;;;;;;4956012;29;20417;-77
2022/09/19 11:11:47;;;;;;;7.10;1.80;;;16.90;99.90;;;;;;4955998;29;20408;-79
2022/09/19 11:14:15;;;;;;;6.77;1.67;;;17.00;99.90;;;;;;4955717;29;20518;-76
2022/09/19 11:17:00;;;;;;;7.20;1.20;;;17.40;99.90;;;;;;4955827;28;20971;-77
2022/09/19 11:19:34;;;;;;;6.63;1.37;;;17.70;99.90;;;;;;4955866;29;20398;-77
2022/09/19 11:22:29;;;;;;;7.80;1.80;;;17.80;99.90;;;;;;4955888;29;20474;-77
2022/09/19 11:25:22;;;;;;;2.80;1.00;;;17.90;99.90;;;;;;4952734;29;20402;-76
2022/09/19 11:27:54;;;;;;;4.50;1.57;;;18.20;99.90;;;;;;4954301;28;20422;-76
2022/09/19 11:30:24;;;;;;;3.27;1.17;;;18.10;99.90;;;;;;4955531;28;20911;-77
2022/09/19 11:32:56;;;;;;;4.17;1.97;;;18.50;99.90;;;;;;4955624;29;20388;-76
2022/09/19 11:35:31;;;;;;;3.53;1.40;;;18.70;99.90;;;;;;4955475;29;20495;-78
2022/09/19 11:38:21;;;;;;;8.00;1.70;;;18.50;99.90;;;;;;4954322;29;20534;-79
2022/09/19 11:41:11;;;;;;;5.03;2.07;;;18.60;99.90;;;;;;4955698;29;20413;-77
2022/09/19 11:43:48;;;;;;;5.90;1.50;;;18.40;99.90;;;;;;4955575;29;20929;-79
2022/09/19 11:46:42;;;;;;;8.43;2.23;;;18.20;99.90;;;;;;4955439;28;20925;-77
2022/09/19 11:49:19;;;;;;;4.67;1.53;;;18.20;99.90;;;;;;4955496;29;20910;-78
2022/09/19 11:51:49;;;;;;;11.50;2.43;;;18.30;99.90;;;;;;4955373;29;20375;-80
2022/09/19 11:54:24;;;;;;;5.90;1.37;;;18.00;99.90;;;;;;4955262;29;20426;-79
2022/09/19 11:57:15;;;;;;;10.07;1.40;;;18.30;99.90;;;;;;4955296;28;20534;-78
2022/09/19 12:00:03;;;;;;;6.77;1.53;;;18.30;99.90;;;;;;4955081;29;20447;-79
2022/09/19 12:03:02;;;;;;;6.63;1.80;;;18.20;99.90;;;;;;4954595;28;20420;-78
2022/09/19 12:05:28;;;;;;;4.47;1.33;;;18.40;99.90;;;;;;4954936;29;20555;-77
2022/09/19 12:08:16;;;;;;;5.33;1.93;;;18.40;99.90;;;;;;4955141;29;20489;-81
2022/09/19 12:10:54;;;;;;;5.10;1.83;;;18.60;99.90;;;;;;4955289;29;20192;-80
2022/09/19 12:13:53;;;;;;;6.70;1.90;;;18.80;99.90;;;;;;4955255;28;20415;-78
2022/09/19 12:16:24;;;;;;;5.17;1.80;;;19.20;99.90;;;;;;4955291;29;20507;-79
2022/09/19 12:19:03;;;;;;;7.80;1.87;;;18.80;99.90;;;;;;4955265;29;20384;-78
2022/09/19 12:22:00;;;;;;;2.70;1.63;;;18.80;99.90;;;;;;4953822;29;20975;-79
2022/09/19 12:24:52;;;;;;;9.43;1.63;;;18.90;99.90;;;;;;4950479;29;20790;-81
2022/09/19 12:27:40;;;;;;;9.30;1.80;;;19.30;99.90;;;;;;4955166;29;20494;-77
2022/09/19 12:30:14;;;;;;;3.23;1.03;;;18.90;99.90;;;;;;4954800;29;20426;-80
2022/09/19 12:33:00;;;;;;;5.60;1.80;;;18.70;99.90;;;;;;4939639;29;20395;-77
2022/09/19 12:35:35;;;;;;;6.30;1.87;;;18.60;99.90;;;;;;4954753;29;20412;-78
2022/09/19 12:38:26;;;;;;;8.63;1.47;;;18.50;99.90;;;;;;4954756;29;20387;-77
2022/09/19 12:40:53;;;;;;;9.57;2.43;;;18.80;99.90;;;;;;4954911;29;20879;-77
2022/09/19 12:43:44;;;;;;;6.43;1.43;;;19.30;99.90;;;;;;4954706;28;20840;-76
2022/09/19 12:46:34;;;;;;;4.90;1.60;;;19.40;99.90;;;;;;4954607;29;20468;-78
2022/09/19 12:49:17;;;;;;;5.27;1.43;;;19.50;99.90;;;;;;4954780;28;20408;-75
2022/09/19 12:51:46;;;;;;;6.33;1.53;;;19.10;99.90;;;;;;4954989;29;20423;-77
2022/09/19 12:54:43;;;;;;;4.37;0.90;;;18.30;99.90;;;;;;4954274;28;20387;-75
2022/09/19 12:57:19;;;;;;;1.97;0.93;;;17.50;99.90;;;;;;4954226;28;20516;-75
2022/09/19 12:59:50;;;;;;;3.97;1.00;;;17.10;99.90;;;;;;4954741;29;20400;-75
2022/09/19 13:02:32;;;;;;;1.90;1.00;;;16.40;99.90;;;;;;4954712;29;20416;-80
2022/09/19 13:05:14;;;;;;;1.83;1.03;;;15.80;99.90;;;;;;4954379;28;20383;-75
2022/09/19 13:07:46;;;;;;;1.80;1.00;;;15.60;99.90;;;;;;4954556;29;20439;-77
2022/09/19 13:10:38;;;;;;;1.80;0.80;;;15.50;99.90;;;;;;4954702;29;20401;-77
2022/09/19 13:13:09;;;;;;;3.20;0.90;;;15.50;99.90;;;;;;4954880;28;20445;-77
2022/09/19 13:15:41;;;;;;;2.93;1.00;;;15.20;99.90;;;;;;4957720;29;20935;-75
2022/09/19 13:23:45;;;;;;;5.30;1.13;;;15.00;99.90;;;;;;4958048;29;20786;-73
2022/09/19 13:26:16;;;;;;;4.00;1.20;;;14.40;99.90;;;;;;4957772;28;20472;-75
2022/09/19 13:28:55;;;;;;;2.67;0.93;;;14.10;99.90;;;;;;4956601;29;20925;-76
2022/09/19 13:31:53;;;;;;;4.77;1.33;;;13.80;99.90;;;;;;4956724;29;20805;-76
2022/09/19 13:35:03;;;;;;;2.20;1.17;;;13.60;99.90;;;;;;4957421;29;20777;-77
2022/09/19 13:37:29;;;;;;;3.50;1.30;;;13.40;99.90;;;;;;4935377;29;20471;-75
2022/09/19 13:40:13;;;;;;;8.60;1.30;;;13.30;99.90;;;;;;4957702;29;20436;-78
2022/09/19 13:42:59;;;;;;;2.20;0.90;;;13.30;99.90;;;;;;4956476;29;20713;-76